Kultus Cove — VRQD7 — position and weather

sailwx.info

Track history (hours):
 
Tides and Currents Weather Stations Pressure Air Temp Water Temp Dewpoint Dewpoint Depression Visibility Wind Speed Wind Dir Waves Ship Positions

Kultus Cove

Last reported at 2018-Feb-07 09:30 UTC. Time now 2018-Feb-20 05:57 UTC.
Position N 34°03' E 130°17'.
Warning: this ship's position is 12 days out of date.

Length 179 m; draft 7.8 m.

Type: Cargo ship. MMSI: 477252500.

Date/timePositionNaut miles runAvg speedWind from/ knotsBaromVisibWave heightAir tempDewpointWater temp
2018-Feb-07 09:30N 34°03' E 130°17'713.2
2018-Feb-07 09:00N 34°03' E 130°25'611.8
2018-Feb-07 08:31N 34°04' E 130°32'612.3
2018-Feb-07 08:00N 34°04' E 130°39'712.9
2018-Feb-07 07:30N 34°04' E 130°47'510.6
2018-Feb-07 07:00N 34°01' E 130°52'4 8.0
2018-Feb-07 06:30N 33°57' E 130°52'4 7.9
2018-Feb-07 06:00N 33°57' E 130°57'510.0
2018-Feb-07 05:31N 33°57' E 131°03'4 7.3
2018-Feb-07 05:01N 33°55' E 131°06'4 7.8
2018-Feb-07 04:30N 33°53' E 131°10'713.3
2018-Feb-07 04:00N 33°51' E 131°18'713.6
2018-Feb-07 03:31N 33°50' E 131°26'713.6
2018-Feb-07 03:00N 33°48' E 131°34'712.6
2018-Feb-07 02:29N 33°46' E 131°41'4 8.5
2018-Feb-07 02:00N 33°43' E 131°45'713.2
2018-Feb-07 01:30N 33°38' E 131°48'714.6
2018-Feb-07 01:00N 33°31' E 131°52'713.4
2018-Feb-07 00:30N 33°25' E 131°56'613.1
2018-Feb-07 00:00N 33°19' E 131°60'713.8
2018-Feb-06 23:30N 33°14' E 132°05'713.5
2018-Feb-06 23:00N 33°09' E 132°10'14110.4
2018-Feb-06 09:26N 33°47' E 134°52'614.3
2018-Feb-06 09:00N 33°53' E 134°53'713.8
2018-Feb-06 08:30N 33°58' E 134°48'713.2
2018-Feb-06 07:59N 34°02' E 134°41'4 8.9
2018-Feb-06 07:30N 34°03' E 134°36'0 0.1
2018-Feb-06 06:51N 34°03' E 134°36'0 0.0
2018-Feb-06 06:27N 34°03' E 134°36'0 0.0
2018-Feb-06 05:58N 34°03' E 134°36'0 0.0
2018-Feb-06 05:21N 34°03' E 134°36'0 0.0
2018-Feb-06 04:57N 34°03' E 134°36'0 0.0
2018-Feb-06 04:30N 34°03' E 134°36'0 0.0
2018-Feb-06 03:27N 34°03' E 134°36'0 0.0
2018-Feb-06 02:57N 34°03' E 134°36'0 0.0
2018-Feb-06 02:27N 34°03' E 134°36'0 0.0
2018-Feb-06 01:57N 34°03' E 134°36'0 0.0
2018-Feb-06 01:27N 34°03' E 134°36'0 0.0
2018-Feb-06 01:00N 34°03' E 134°36'0 0.0
2018-Feb-06 00:27N 34°03' E 134°36'0 0.0
2018-Feb-05 23:54N 34°03' E 134°36'0 0.0
2018-Feb-05 23:27N 34°03' E 134°36'0 0.0
2018-Feb-05 22:58N 34°03' E 134°36'0 0.0
2018-Feb-05 22:09N 34°03' E 134°36'0 0.0
2018-Feb-05 22:00N 34°03' E 134°36'0 0.0
2018-Feb-05 21:15N 34°03' E 134°36'0 0.0
2018-Feb-05 20:54N 34°03' E 134°36'0 0.0
2018-Feb-05 20:27N 34°03' E 134°36'0 0.0
2018-Feb-05 19:57N 34°03' E 134°36'0 0.0
2018-Feb-05 19:27N 34°03' E 134°36'0 0.0
2018-Feb-05 18:45N 34°03' E 134°36'0 0.0
2018-Feb-05 18:21N 34°03' E 134°36'0 0.0
2018-Feb-05 17:57N 34°03' E 134°36'0 0.0
2018-Feb-05 17:27N 34°03' E 134°36'0 0.0
2018-Feb-05 16:57N 34°03' E 134°36'0 0.0
2018-Feb-05 16:28N 34°03' E 134°36'0 0.0
2018-Feb-05 15:57N 34°03' E 134°36'0 0.0
2018-Feb-05 15:27N 34°03' E 134°36'0 0.0
2018-Feb-05 14:57N 34°03' E 134°36'0 0.0
2018-Feb-05 14:30N 34°03' E 134°36'0 0.0
2018-Feb-05 13:57N 34°03' E 134°36'0 0.0
2018-Feb-05 13:21N 34°03' E 134°36'0 0.0
2018-Feb-05 12:46N 34°03' E 134°36'0 0.0
2018-Feb-05 12:27N 34°03' E 134°36'0 0.0
2018-Feb-05 11:57N 34°03' E 134°36'0 0.0
2018-Feb-05 11:27N 34°03' E 134°36'0 0.0
2018-Feb-05 10:51N 34°03' E 134°36'0 0.0
2018-Feb-05 10:28N 34°03' E 134°36'0 0.0
2018-Feb-05 09:57N 34°03' E 134°36'0 0.0
2018-Feb-05 09:27N 34°03' E 134°36'0 0.0
2018-Feb-05 08:51N 34°03' E 134°36'0 0.0
2018-Feb-05 08:27N 34°03' E 134°36'0 0.0
2018-Feb-05 07:57N 34°03' E 134°36'0 0.0
2018-Feb-05 07:27N 34°03' E 134°36'0 0.0
2018-Feb-05 06:57N 34°03' E 134°36'0 0.0
2018-Feb-05 06:27N 34°03' E 134°36'0 0.0
2018-Feb-05 05:21N 34°03' E 134°36'0 0.0
2018-Feb-05 04:57N 34°03' E 134°36'0 0.0
2018-Feb-05 04:27N 34°03' E 134°36'0 0.0
2018-Feb-05 03:57N 34°03' E 134°36'0 0.0
2018-Feb-05 03:21N 34°03' E 134°36'0 0.0
2018-Feb-05 03:00N 34°03' E 134°36'0 0.0
2018-Feb-05 02:30N 34°03' E 134°36'0 0.0
2018-Feb-05 01:57N 34°03' E 134°36'0 0.0
2018-Feb-05 01:27N 34°03' E 134°36'0 0.0
2018-Feb-05 00:57N 34°03' E 134°36'0 0.0
2018-Feb-05 00:27N 34°03' E 134°36'0 0.0
2018-Feb-04 23:57N 34°03' E 134°36'0 0.0
2018-Feb-04 23:12N 34°03' E 134°36'0 0.0
2018-Feb-04 22:45N 34°03' E 134°36'0 0.0
2018-Feb-04 22:27N 34°03' E 134°36'0 0.0
2018-Feb-04 21:57N 34°03' E 134°36'0 0.0
2018-Feb-04 21:21N 34°03' E 134°36'0 0.0
2018-Feb-04 20:57N 34°03' E 134°36'0 0.0
2018-Feb-04 20:00N 34°03' E 134°36'0 0.0
2018-Feb-04 19:27N 34°03' E 134°36'0 0.0
2018-Feb-04 18:57N 34°03' E 134°36'0 0.0
2018-Feb-04 18:27N 34°03' E 134°36'0 0.0
2018-Feb-04 17:57N 34°03' E 134°36'0 0.0
2018-Feb-04 17:27N 34°03' E 134°36'0 0.0
2018-Feb-04 15:27N 34°03' E 134°36'0 0.0
2018-Feb-04 14:45N 34°03' E 134°36'0 0.0
2018-Feb-04 14:27N 34°03' E 134°36'0 0.0
2018-Feb-04 13:51N 34°03' E 134°36'0 0.0
2018-Feb-04 13:27N 34°03' E 134°36'0 0.0
2018-Feb-04 12:57N 34°03' E 134°36'0 0.0
2018-Feb-04 12:27N 34°03' E 134°36'0 0.0
2018-Feb-04 11:57N 34°03' E 134°36'0 0.0
2018-Feb-04 11:27N 34°03' E 134°36'0 0.0
2018-Feb-04 09:57N 34°03' E 134°36'0 0.0
2018-Feb-04 08:51N 34°03' E 134°36'0 0.0
2018-Feb-04 08:27N 34°03' E 134°36'0 0.0
2018-Feb-04 07:57N 34°03' E 134°36'0 0.0
2018-Feb-04 07:27N 34°03' E 134°36'0 0.0
2018-Feb-04 06:57N 34°03' E 134°36'0 0.0
2018-Feb-04 06:27N 34°03' E 134°36'0 0.0
2018-Feb-04 05:57N 34°03' E 134°36'0 0.0
2018-Feb-04 05:27N 34°03' E 134°36'0 0.0
2018-Feb-04 04:57N 34°03' E 134°36'0 0.0
2018-Feb-04 04:27N 34°03' E 134°36'0 0.0
2018-Feb-04 03:57N 34°03' E 134°36'0 0.0
2018-Feb-04 03:27N 34°03' E 134°36'0 0.0
2018-Feb-04 02:57N 34°03' E 134°36'0 0.0
2018-Feb-04 02:27N 34°03' E 134°36'0 0.0
2018-Feb-04 01:57N 34°03' E 134°36'0 0.0
2018-Feb-04 01:27N 34°03' E 134°36'0 0.0
2018-Feb-04 00:57N 34°03' E 134°36'0 0.0
2018-Feb-04 00:27N 34°03' E 134°36'0 0.0
2018-Feb-03 23:57N 34°03' E 134°36'0 0.0
2018-Feb-03 23:27N 34°03' E 134°36'0 0.0
2018-Feb-03 22:57N 34°03' E 134°36'0 0.0
2018-Feb-03 22:21N 34°03' E 134°36'0 0.0
2018-Feb-03 21:51N 34°03' E 134°36'0 0.0
2018-Feb-03 21:21N 34°03' E 134°36'0 0.0
2018-Feb-03 20:57N 34°03' E 134°36'0 0.0
2018-Feb-03 20:27N 34°03' E 134°36'0 0.0
2018-Feb-03 19:57N 34°03' E 134°36'0 0.0
2018-Feb-03 18:27N 34°03' E 134°36'0 0.0
2018-Feb-03 17:57N 34°03' E 134°36'0 0.0
2018-Feb-03 17:27N 34°03' E 134°36'0 0.0
2018-Feb-03 16:51N 34°03' E 134°36'0 0.0
2018-Feb-03 15:57N 34°03' E 134°36'0 0.0
2018-Feb-03 15:27N 34°03' E 134°36'0 0.0
2018-Feb-03 14:57N 34°03' E 134°36'0 0.0
2018-Feb-03 14:30N 34°03' E 134°36'0 0.0
2018-Feb-03 13:57N 34°03' E 134°36'0 0.0
2018-Feb-03 13:27N 34°03' E 134°36'0 0.0
2018-Feb-03 12:57N 34°03' E 134°36'0 0.0
2018-Feb-03 12:21N 34°03' E 134°36'0 0.0
2018-Feb-03 11:57N 34°03' E 134°36'0 0.0
2018-Feb-03 11:27N 34°03' E 134°36'0 0.0
2018-Feb-03 10:57N 34°03' E 134°36'0 0.0
2018-Feb-03 10:15N 34°03' E 134°36'0 0.0
2018-Feb-03 09:57N 34°03' E 134°36'0 0.0
2018-Feb-03 09:27N 34°03' E 134°36'0 0.0
2018-Feb-03 08:57N 34°03' E 134°36'0 0.0
2018-Feb-03 08:27N 34°03' E 134°36'0 0.0
2018-Feb-03 07:57N 34°03' E 134°36'0 0.0
2018-Feb-03 06:30N 34°03' E 134°36'0 0.0
2018-Feb-03 05:57N 34°03' E 134°36'0 0.0
2018-Feb-03 05:21N 34°03' E 134°36'0 0.0
2018-Feb-03 05:00N 34°03' E 134°36'0 0.0
2018-Feb-03 04:00N 34°03' E 134°36'0 0.0
2018-Feb-03 03:27N 34°03' E 134°36'0 0.0
2018-Feb-03 01:51N 34°03' E 134°36'0 0.0
2018-Feb-03 01:21N 34°03' E 134°36'0 0.0
2018-Feb-03 01:00N 34°03' E 134°36'0 0.0
2018-Feb-03 00:27N 34°03' E 134°36'0 0.0
2018-Feb-03 00:00N 34°03' E 134°36'0 0.0
2018-Feb-02 23:21N 34°03' E 134°36'0 0.0
2018-Feb-02 22:51N 34°03' E 134°36'0 0.0
2018-Feb-02 22:30N 34°03' E 134°36'2 3.1
2018-Feb-02 22:00N 34°03' E 134°38'1 2.7
2018-Feb-02 21:30N 34°01' E 134°37'0 0.0
2018-Feb-02 21:00N 34°01' E 134°37'0 0.0
2018-Feb-02 20:30N 34°01' E 134°37'0 0.1
2018-Feb-02 20:00N 34°01' E 134°37'0 0.1
2018-Feb-02 19:00N 34°01' E 134°37'0 0.0
2018-Feb-02 18:30N 34°01' E 134°37'0 0.0
2018-Feb-02 18:00N 34°01' E 134°37'0 0.0
2018-Feb-02 17:30N 34°01' E 134°37'0 0.0
2018-Feb-02 17:00N 34°01' E 134°37'0 0.1
2018-Feb-02 16:30N 34°01' E 134°37'0 0.0
2018-Feb-02 15:30N 34°01' E 134°37'0 0.0
2018-Feb-02 14:30N 34°01' E 134°37'0 0.0
2018-Feb-02 14:00N 34°01' E 134°37'0 0.0
2018-Feb-02 13:24N 34°01' E 134°37'0 0.2
2018-Feb-02 13:00N 34°01' E 134°37'0 0.1
2018-Feb-02 12:30N 34°01' E 134°37'0 0.0
2018-Feb-02 12:00N 34°01' E 134°37'0 0.1
2018-Feb-02 11:30N 34°01' E 134°37'0 0.0
2018-Feb-02 11:00N 34°01' E 134°37'0 0.1
2018-Feb-02 10:30N 34°01' E 134°37'0 0.0
2018-Feb-02 10:00N 34°01' E 134°37'0 0.1
2018-Feb-02 09:30N 34°01' E 134°37'0 0.0
2018-Feb-02 09:00N 34°01' E 134°37'0 0.0
2018-Feb-02 08:24N 34°01' E 134°37'0 0.2
2018-Feb-02 08:00N 34°01' E 134°37'0 0.4
2018-Feb-02 07:30N 34°01' E 134°37'2 4.0
2018-Feb-02 06:57N 34°01' E 134°40'4 8.2
2018-Feb-02 06:30N 33°60' E 134°44'510.5
2018-Feb-02 06:00N 33°57' E 134°49'711.6
2018-Feb-02 05:26N 33°51' E 134°53'14710.5
2018-Feb-01 15:26N 33°15' E 132°02'916.2
2018-Feb-01 14:54N 33°22' E 131°56'2115.1
2018-Feb-01 13:31N 33°41' E 131°45'713.5
2018-Feb-01 13:00N 33°46' E 131°40'713.7
2018-Feb-01 12:30N 33°47' E 131°32'713.4
2018-Feb-01 12:00N 33°49' E 131°24'1312.7
2018-Feb-01 11:00N 33°52' E 131°10'611.0
2018-Feb-01 10:30N 33°56' E 131°04'4 8.7
2018-Feb-01 10:00N 33°59' E 131°00'4 8.1
2018-Feb-01 09:30N 33°56' E 130°56'3 5.6
2018-Feb-01 09:00N 33°55' E 130°53'5 9.3
2018-Feb-01 08:30N 33°60' E 130°52'8 7.5
2018-Feb-01 07:30N 34°04' E 130°45'4 7.4
2018-Feb-01 07:00N 34°06' E 130°42'5 9.3
2018-Feb-01 06:30N 34°11' E 130°42'4 7.9
2018-Feb-01 06:00N 34°15' E 130°42'5 9.4
2018-Feb-01 05:30N 34°20' E 130°42'510.0
2018-Feb-01 05:00N 34°25' E 130°42'5 9.5
2018-Feb-01 04:28N 34°29' E 130°45'510.2
2018-Feb-01 04:00N 34°33' E 130°48'  
Track history (hours):
 
Tides and Currents Weather Stations Pressure Air Temp Water Temp Dewpoint Dewpoint Depression Visibility Wind Speed Wind Dir Waves Ship Positions

Kultus Cove

Last reported at 2018-Feb-07 09:30 UTC. Time now 2018-Feb-20 05:57 UTC.
Position N 34°03' E 130°17'.
Warning: this ship's position is 12 days out of date.

Length 179 m; draft 7.8 m.

Type: Cargo ship. MMSI: 477252500.

Date/timePositionNaut miles runAvg speedWind from/ knotsBaromVisibWave heightAir tempDewpointWater temp
2018-Feb-07 09:30N 34°03' E 130°17'713.2
2018-Feb-07 09:00N 34°03' E 130°25'611.8
2018-Feb-07 08:31N 34°04' E 130°32'612.3
2018-Feb-07 08:00N 34°04' E 130°39'712.9
2018-Feb-07 07:30N 34°04' E 130°47'510.6
2018-Feb-07 07:00N 34°01' E 130°52'4 8.0
2018-Feb-07 06:30N 33°57' E 130°52'4 7.9
2018-Feb-07 06:00N 33°57' E 130°57'510.0
2018-Feb-07 05:31N 33°57' E 131°03'4 7.3
2018-Feb-07 05:01N 33°55' E 131°06'4 7.8
2018-Feb-07 04:30N 33°53' E 131°10'713.3
2018-Feb-07 04:00N 33°51' E 131°18'713.6
2018-Feb-07 03:31N 33°50' E 131°26'713.6
2018-Feb-07 03:00N 33°48' E 131°34'712.6
2018-Feb-07 02:29N 33°46' E 131°41'4 8.5
2018-Feb-07 02:00N 33°43' E 131°45'713.2
2018-Feb-07 01:30N 33°38' E 131°48'714.6
2018-Feb-07 01:00N 33°31' E 131°52'713.4
2018-Feb-07 00:30N 33°25' E 131°56'613.1
2018-Feb-07 00:00N 33°19' E 131°60'713.8
2018-Feb-06 23:30N 33°14' E 132°05'713.5
2018-Feb-06 23:00N 33°09' E 132°10'14110.4
2018-Feb-06 09:26N 33°47' E 134°52'614.3
2018-Feb-06 09:00N 33°53' E 134°53'713.8
2018-Feb-06 08:30N 33°58' E 134°48'713.2
2018-Feb-06 07:59N 34°02' E 134°41'4 8.9
2018-Feb-06 07:30N 34°03' E 134°36'0 0.1
2018-Feb-06 06:51N 34°03' E 134°36'0 0.0
2018-Feb-06 06:27N 34°03' E 134°36'0 0.0
2018-Feb-06 05:58N 34°03' E 134°36'0 0.0
2018-Feb-06 05:21N 34°03' E 134°36'0 0.0
2018-Feb-06 04:57N 34°03' E 134°36'0 0.0
2018-Feb-06 04:30N 34°03' E 134°36'0 0.0
2018-Feb-06 03:27N 34°03' E 134°36'0 0.0
2018-Feb-06 02:57N 34°03' E 134°36'0 0.0
2018-Feb-06 02:27N 34°03' E 134°36'0 0.0
2018-Feb-06 01:57N 34°03' E 134°36'0 0.0
2018-Feb-06 01:27N 34°03' E 134°36'0 0.0
2018-Feb-06 01:00N 34°03' E 134°36'0 0.0
2018-Feb-06 00:27N 34°03' E 134°36'0 0.0
2018-Feb-05 23:54N 34°03' E 134°36'0 0.0
2018-Feb-05 23:27N 34°03' E 134°36'0 0.0
2018-Feb-05 22:58N 34°03' E 134°36'0 0.0
2018-Feb-05 22:09N 34°03' E 134°36'0 0.0
2018-Feb-05 22:00N 34°03' E 134°36'0 0.0
2018-Feb-05 21:15N 34°03' E 134°36'0 0.0
2018-Feb-05 20:54N 34°03' E 134°36'0 0.0
2018-Feb-05 20:27N 34°03' E 134°36'0 0.0
2018-Feb-05 19:57N 34°03' E 134°36'0 0.0
2018-Feb-05 19:27N 34°03' E 134°36'0 0.0
2018-Feb-05 18:45N 34°03' E 134°36'0 0.0
2018-Feb-05 18:21N 34°03' E 134°36'0 0.0
2018-Feb-05 17:57N 34°03' E 134°36'0 0.0
2018-Feb-05 17:27N 34°03' E 134°36'0 0.0
2018-Feb-05 16:57N 34°03' E 134°36'0 0.0
2018-Feb-05 16:28N 34°03' E 134°36'0 0.0
2018-Feb-05 15:57N 34°03' E 134°36'0 0.0
2018-Feb-05 15:27N 34°03' E 134°36'0 0.0
2018-Feb-05 14:57N 34°03' E 134°36'0 0.0
2018-Feb-05 14:30N 34°03' E 134°36'0 0.0
2018-Feb-05 13:57N 34°03' E 134°36'0 0.0
2018-Feb-05 13:21N 34°03' E 134°36'0 0.0
2018-Feb-05 12:46N 34°03' E 134°36'0 0.0
2018-Feb-05 12:27N 34°03' E 134°36'0 0.0
2018-Feb-05 11:57N 34°03' E 134°36'0 0.0
2018-Feb-05 11:27N 34°03' E 134°36'0 0.0
2018-Feb-05 10:51N 34°03' E 134°36'0 0.0
2018-Feb-05 10:28N 34°03' E 134°36'0 0.0
2018-Feb-05 09:57N 34°03' E 134°36'0 0.0
2018-Feb-05 09:27N 34°03' E 134°36'0 0.0
2018-Feb-05 08:51N 34°03' E 134°36'0 0.0
2018-Feb-05 08:27N 34°03' E 134°36'0 0.0
2018-Feb-05 07:57N 34°03' E 134°36'0 0.0
2018-Feb-05 07:27N 34°03' E 134°36'0 0.0
2018-Feb-05 06:57N 34°03' E 134°36'0 0.0
2018-Feb-05 06:27N 34°03' E 134°36'0 0.0
2018-Feb-05 05:21N 34°03' E 134°36'0 0.0
2018-Feb-05 04:57N 34°03' E 134°36'0 0.0
2018-Feb-05 04:27N 34°03' E 134°36'0 0.0
2018-Feb-05 03:57N 34°03' E 134°36'0 0.0
2018-Feb-05 03:21N 34°03' E 134°36'0 0.0
2018-Feb-05 03:00N 34°03' E 134°36'0 0.0
2018-Feb-05 02:30N 34°03' E 134°36'0 0.0
2018-Feb-05 01:57N 34°03' E 134°36'0 0.0
2018-Feb-05 01:27N 34°03' E 134°36'0 0.0
2018-Feb-05 00:57N 34°03' E 134°36'0 0.0
2018-Feb-05 00:27N 34°03' E 134°36'0 0.0
2018-Feb-04 23:57N 34°03' E 134°36'0 0.0
2018-Feb-04 23:12N 34°03' E 134°36'0 0.0
2018-Feb-04 22:45N 34°03' E 134°36'0 0.0
2018-Feb-04 22:27N 34°03' E 134°36'0 0.0
2018-Feb-04 21:57N 34°03' E 134°36'0 0.0
2018-Feb-04 21:21N 34°03' E 134°36'0 0.0
2018-Feb-04 20:57N 34°03' E 134°36'0 0.0
2018-Feb-04 20:00N 34°03' E 134°36'0 0.0
2018-Feb-04 19:27N 34°03' E 134°36'0 0.0
2018-Feb-04 18:57N 34°03' E 134°36'0 0.0
2018-Feb-04 18:27N 34°03' E 134°36'0 0.0
2018-Feb-04 17:57N 34°03' E 134°36'0 0.0
2018-Feb-04 17:27N 34°03' E 134°36'0 0.0
2018-Feb-04 15:27N 34°03' E 134°36'0 0.0
2018-Feb-04 14:45N 34°03' E 134°36'0 0.0
2018-Feb-04 14:27N 34°03' E 134°36'0 0.0
2018-Feb-04 13:51N 34°03' E 134°36'0 0.0
2018-Feb-04 13:27N 34°03' E 134°36'0 0.0
2018-Feb-04 12:57N 34°03' E 134°36'0 0.0
2018-Feb-04 12:27N 34°03' E 134°36'0 0.0
2018-Feb-04 11:57N 34°03' E 134°36'0 0.0
2018-Feb-04 11:27N 34°03' E 134°36'0 0.0
2018-Feb-04 09:57N 34°03' E 134°36'0 0.0
2018-Feb-04 08:51N 34°03' E 134°36'0 0.0
2018-Feb-04 08:27N 34°03' E 134°36'0 0.0
2018-Feb-04 07:57N 34°03' E 134°36'0 0.0
2018-Feb-04 07:27N 34°03' E 134°36'0 0.0
2018-Feb-04 06:57N 34°03' E 134°36'0 0.0
2018-Feb-04 06:27N 34°03' E 134°36'0 0.0
2018-Feb-04 05:57N 34°03' E 134°36'0 0.0
2018-Feb-04 05:27N 34°03' E 134°36'0 0.0
2018-Feb-04 04:57N 34°03' E 134°36'0 0.0
2018-Feb-04 04:27N 34°03' E 134°36'0 0.0
2018-Feb-04 03:57N 34°03' E 134°36'0 0.0
2018-Feb-04 03:27N 34°03' E 134°36'0 0.0
2018-Feb-04 02:57N 34°03' E 134°36'0 0.0
2018-Feb-04 02:27N 34°03' E 134°36'0 0.0
2018-Feb-04 01:57N 34°03' E 134°36'0 0.0
2018-Feb-04 01:27N 34°03' E 134°36'0 0.0
2018-Feb-04 00:57N 34°03' E 134°36'0 0.0
2018-Feb-04 00:27N 34°03' E 134°36'0 0.0
2018-Feb-03 23:57N 34°03' E 134°36'0 0.0
2018-Feb-03 23:27N 34°03' E 134°36'0 0.0
2018-Feb-03 22:57N 34°03' E 134°36'0 0.0
2018-Feb-03 22:21N 34°03' E 134°36'0 0.0
2018-Feb-03 21:51N 34°03' E 134°36'0 0.0
2018-Feb-03 21:21N 34°03' E 134°36'0 0.0
2018-Feb-03 20:57N 34°03' E 134°36'0 0.0
2018-Feb-03 20:27N 34°03' E 134°36'0 0.0
2018-Feb-03 19:57N 34°03' E 134°36'0 0.0
2018-Feb-03 18:27N 34°03' E 134°36'0 0.0
2018-Feb-03 17:57N 34°03' E 134°36'0 0.0
2018-Feb-03 17:27N 34°03' E 134°36'0 0.0
2018-Feb-03 16:51N 34°03' E 134°36'0 0.0
2018-Feb-03 15:57N 34°03' E 134°36'0 0.0
2018-Feb-03 15:27N 34°03' E 134°36'0 0.0
2018-Feb-03 14:57N 34°03' E 134°36'0 0.0
2018-Feb-03 14:30N 34°03' E 134°36'0 0.0
2018-Feb-03 13:57N 34°03' E 134°36'0 0.0
2018-Feb-03 13:27N 34°03' E 134°36'0 0.0
2018-Feb-03 12:57N 34°03' E 134°36'0 0.0
2018-Feb-03 12:21N 34°03' E 134°36'0 0.0
2018-Feb-03 11:57N 34°03' E 134°36'0 0.0
2018-Feb-03 11:27N 34°03' E 134°36'0 0.0
2018-Feb-03 10:57N 34°03' E 134°36'0 0.0
2018-Feb-03 10:15N 34°03' E 134°36'0 0.0
2018-Feb-03 09:57N 34°03' E 134°36'0 0.0
2018-Feb-03 09:27N 34°03' E 134°36'0 0.0
2018-Feb-03 08:57N 34°03' E 134°36'0 0.0
2018-Feb-03 08:27N 34°03' E 134°36'0 0.0
2018-Feb-03 07:57N 34°03' E 134°36'0 0.0
2018-Feb-03 06:30N 34°03' E 134°36'0 0.0
2018-Feb-03 05:57N 34°03' E 134°36'0 0.0
2018-Feb-03 05:21N 34°03' E 134°36'0 0.0
2018-Feb-03 05:00N 34°03' E 134°36'0 0.0
2018-Feb-03 04:00N 34°03' E 134°36'0 0.0
2018-Feb-03 03:27N 34°03' E 134°36'0 0.0
2018-Feb-03 01:51N 34°03' E 134°36'0 0.0
2018-Feb-03 01:21N 34°03' E 134°36'0 0.0
2018-Feb-03 01:00N 34°03' E 134°36'0 0.0
2018-Feb-03 00:27N 34°03' E 134°36'0 0.0
2018-Feb-03 00:00N 34°03' E 134°36'0 0.0
2018-Feb-02 23:21N 34°03' E 134°36'0 0.0
2018-Feb-02 22:51N 34°03' E 134°36'0 0.0
2018-Feb-02 22:30N 34°03' E 134°36'2 3.1
2018-Feb-02 22:00N 34°03' E 134°38'1 2.7
2018-Feb-02 21:30N 34°01' E 134°37'0 0.0
2018-Feb-02 21:00N 34°01' E 134°37'0 0.0
2018-Feb-02 20:30N 34°01' E 134°37'0 0.1
2018-Feb-02 20:00N 34°01' E 134°37'0 0.1
2018-Feb-02 19:00N 34°01' E 134°37'0 0.0
2018-Feb-02 18:30N 34°01' E 134°37'0 0.0
2018-Feb-02 18:00N 34°01' E 134°37'0 0.0
2018-Feb-02 17:30N 34°01' E 134°37'0 0.0
2018-Feb-02 17:00N 34°01' E 134°37'0 0.1
2018-Feb-02 16:30N 34°01' E 134°37'0 0.0
2018-Feb-02 15:30N 34°01' E 134°37'0 0.0
2018-Feb-02 14:30N 34°01' E 134°37'0 0.0
2018-Feb-02 14:00N 34°01' E 134°37'0 0.0
2018-Feb-02 13:24N 34°01' E 134°37'0 0.2
2018-Feb-02 13:00N 34°01' E 134°37'0 0.1
2018-Feb-02 12:30N 34°01' E 134°37'0 0.0
2018-Feb-02 12:00N 34°01' E 134°37'0 0.1
2018-Feb-02 11:30N 34°01' E 134°37'0 0.0
2018-Feb-02 11:00N 34°01' E 134°37'0 0.1
2018-Feb-02 10:30N 34°01' E 134°37'0 0.0
2018-Feb-02 10:00N 34°01' E 134°37'0 0.1
2018-Feb-02 09:30N 34°01' E 134°37'0 0.0
2018-Feb-02 09:00N 34°01' E 134°37'0 0.0
2018-Feb-02 08:24N 34°01' E 134°37'0 0.2
2018-Feb-02 08:00N 34°01' E 134°37'0 0.4
2018-Feb-02 07:30N 34°01' E 134°37'2 4.0
2018-Feb-02 06:57N 34°01' E 134°40'4 8.2
2018-Feb-02 06:30N 33°60' E 134°44'510.5
2018-Feb-02 06:00N 33°57' E 134°49'711.6
2018-Feb-02 05:26N 33°51' E 134°53'14710.5
2018-Feb-01 15:26N 33°15' E 132°02'916.2
2018-Feb-01 14:54N 33°22' E 131°56'2115.1
2018-Feb-01 13:31N 33°41' E 131°45'713.5
2018-Feb-01 13:00N 33°46' E 131°40'713.7
2018-Feb-01 12:30N 33°47' E 131°32'713.4
2018-Feb-01 12:00N 33°49' E 131°24'1312.7
2018-Feb-01 11:00N 33°52' E 131°10'611.0
2018-Feb-01 10:30N 33°56' E 131°04'4 8.7
2018-Feb-01 10:00N 33°59' E 131°00'4 8.1
2018-Feb-01 09:30N 33°56' E 130°56'3 5.6
2018-Feb-01 09:00N 33°55' E 130°53'5 9.3
2018-Feb-01 08:30N 33°60' E 130°52'8 7.5
2018-Feb-01 07:30N 34°04' E 130°45'4 7.4
2018-Feb-01 07:00N 34°06' E 130°42'5 9.3
2018-Feb-01 06:30N 34°11' E 130°42'4 7.9
2018-Feb-01 06:00N 34°15' E 130°42'5 9.4
2018-Feb-01 05:30N 34°20' E 130°42'510.0
2018-Feb-01 05:00N 34°25' E 130°42'5 9.5
2018-Feb-01 04:28N 34°29' E 130°45'510.2
2018-Feb-01 04:00N 34°33' E 130°48'  

Dump ship's entire track history